createdAt,value
2018-08-04T00:01:33.939Z,22.67
2018-08-04T00:04:02.344Z,22.70
2018-08-04T00:06:33.469Z,22.71
2018-08-04T00:09:01.909Z,22.14
2018-08-04T00:11:30.395Z,21.97
2018-08-04T00:13:59.272Z,22.13
2018-08-04T00:16:27.728Z,22.20
2018-08-04T00:18:56.191Z,22.40
2018-08-04T00:21:24.612Z,22.50
2018-08-04T00:23:53.502Z,22.53
2018-08-04T00:26:22.038Z,22.52
2018-08-04T00:28:50.759Z,22.57
2018-08-04T00:31:19.203Z,22.41
2018-08-04T00:33:47.626Z,22.23
2018-08-04T00:36:16.451Z,22.24
2018-08-04T00:38:44.882Z,22.14
2018-08-04T00:41:13.366Z,22.01
2018-08-04T00:43:42.023Z,22.16
2018-08-04T00:46:10.431Z,22.01
2018-08-04T00:48:38.831Z,22.02
2018-08-04T00:51:07.279Z,22.05
2018-08-04T00:53:35.910Z,22.15
2018-08-04T00:56:04.519Z,22.04
2018-08-04T00:58:32.968Z,21.79
2018-08-04T01:01:01.342Z,21.87
2018-08-04T01:03:29.773Z,22.10
2018-08-04T01:05:58.264Z,22.02
2018-08-04T01:08:26.715Z,21.95
2018-08-04T01:10:55.431Z,21.56
2018-08-04T01:13:23.971Z,21.69
2018-08-04T01:15:52.375Z,21.69
2018-08-04T01:18:20.887Z,21.71
2018-08-04T01:20:49.410Z,21.78
2018-08-04T01:23:17.847Z,21.69
2018-08-04T01:25:46.270Z,21.82
2018-08-04T01:28:14.750Z,21.86
2018-08-04T01:30:43.387Z,21.72
2018-08-04T01:33:11.827Z,21.71
2018-08-04T01:35:40.741Z,21.49
2018-08-04T01:38:09.263Z,21.56
2018-08-04T01:40:37.714Z,21.15
2018-08-04T01:43:06.629Z,21.35
2018-08-04T01:45:35.115Z,21.28
2018-08-04T01:48:03.547Z,21.33
2018-08-04T01:50:31.975Z,21.28
2018-08-04T01:53:00.415Z,21.39
2018-08-04T01:55:28.816Z,21.24
2018-08-04T01:57:57.334Z,21.13
2018-08-04T02:00:25.775Z,20.86
2018-08-04T02:02:54.192Z,21.00
2018-08-04T02:05:22.620Z,21.13
2018-08-04T02:07:51.055Z,21.14
2018-08-04T02:10:19.570Z,21.19
2018-08-04T02:12:48.072Z,21.13
2018-08-04T02:15:16.427Z,21.24
2018-08-04T02:17:44.835Z,21.27
2018-08-04T02:20:13.211Z,21.32
2018-08-04T02:22:41.748Z,21.23
2018-08-04T02:25:10.151Z,21.16
2018-08-04T02:27:38.555Z,20.96
2018-08-04T02:30:07.007Z,20.82
2018-08-04T02:32:35.415Z,20.68
2018-08-04T02:35:04.259Z,20.46
2018-08-04T02:37:32.656Z,20.68
2018-08-04T02:40:01.083Z,20.62
2018-08-04T02:42:29.745Z,20.66
2018-08-04T02:44:58.221Z,20.81
2018-08-04T02:47:26.615Z,20.84
2018-08-04T02:49:55.151Z,20.68
2018-08-04T02:52:23.663Z,20.65
2018-08-04T02:54:52.346Z,20.54
2018-08-04T02:57:21.242Z,20.65
2018-08-04T02:59:49.635Z,20.42
2018-08-04T03:02:18.100Z,20.61
2018-08-04T03:04:46.560Z,20.62
2018-08-04T03:07:14.979Z,20.70
2018-08-04T03:09:43.379Z,20.64
2018-08-04T03:12:12.103Z,20.74
2018-08-04T03:14:40.503Z,20.68
2018-08-04T03:17:08.924Z,20.64
2018-08-04T03:19:37.778Z,20.56
2018-08-04T03:22:06.795Z,20.66
2018-08-04T03:24:35.275Z,20.58
2018-08-04T03:27:03.863Z,20.70
2018-08-04T03:29:32.271Z,20.73
2018-08-04T03:32:00.776Z,20.74
2018-08-04T03:34:29.510Z,20.83
2018-08-04T03:36:57.982Z,20.67
2018-08-04T03:39:26.397Z,20.72
2018-08-04T03:41:55.050Z,20.63
2018-08-04T03:44:23.470Z,20.62
2018-08-04T03:46:51.910Z,20.77
2018-08-04T03:49:20.451Z,20.69
2018-08-04T03:51:48.995Z,20.59
2018-08-04T03:54:17.400Z,20.63
2018-08-04T03:56:45.866Z,20.16
2018-08-04T03:59:14.263Z,20.20
2018-08-04T04:01:42.707Z,20.48
2018-08-04T04:04:11.206Z,20.46
2018-08-04T04:06:39.715Z,20.53
2018-08-04T04:09:09.764Z,20.67
2018-08-04T04:11:38.352Z,20.66
2018-08-04T04:14:06.948Z,20.51
2018-08-04T04:16:35.665Z,20.43
2018-08-04T04:19:04.420Z,20.35
2018-08-04T04:21:32.933Z,20.50
2018-08-04T04:24:01.536Z,20.63
2018-08-04T04:26:30.183Z,21.42
2018-08-04T04:28:58.602Z,21.59
2018-08-04T04:31:27.028Z,21.57
2018-08-04T04:33:56.139Z,21.08
2018-08-04T04:36:24.614Z,21.06
2018-08-04T04:38:53.195Z,20.87
2018-08-04T04:41:21.666Z,20.96
2018-08-04T04:43:50.024Z,20.96
2018-08-04T04:46:18.618Z,21.46
2018-08-04T04:48:47.471Z,21.39
2018-08-04T04:51:15.847Z,21.56
2018-08-04T04:53:44.399Z,21.59
2018-08-04T04:56:13.159Z,22.01
2018-08-04T04:58:41.699Z,22.41
2018-08-04T05:01:10.286Z,22.73
2018-08-04T05:03:38.929Z,23.05
2018-08-04T05:06:07.331Z,23.16
2018-08-04T05:08:35.863Z,23.31
2018-08-04T05:11:04.385Z,23.64
2018-08-04T05:13:32.832Z,23.70
2018-08-04T05:16:01.356Z,23.49
2018-08-04T05:18:29.823Z,23.77
2018-08-04T05:20:58.211Z,24.08
2018-08-04T05:23:26.628Z,24.22
2018-08-04T05:25:55.211Z,24.48
2018-08-04T05:28:23.608Z,24.72
2018-08-04T05:30:52.072Z,24.32
2018-08-04T05:33:20.894Z,24.72
2018-08-04T05:35:49.387Z,24.85
2018-08-04T05:38:17.776Z,25.07
2018-08-04T05:40:46.411Z,25.08
2018-08-04T05:43:14.978Z,25.05
2018-08-04T05:45:43.540Z,25.19
2018-08-04T05:48:12.222Z,25.50
2018-08-04T05:50:40.695Z,25.55
2018-08-04T05:53:09.167Z,25.51
2018-08-04T05:55:37.603Z,25.92
2018-08-04T05:58:06.407Z,25.55
2018-08-04T06:00:34.855Z,25.71
2018-08-04T06:03:03.480Z,25.77
2018-08-04T06:05:31.911Z,25.77
2018-08-04T06:08:00.315Z,26.54
2018-08-04T06:10:28.909Z,26.06
2018-08-04T06:12:57.419Z,26.61
2018-08-04T06:15:25.963Z,26.55
2018-08-04T06:17:54.559Z,26.81
2018-08-04T06:20:23.103Z,27.03
2018-08-04T06:22:51.715Z,26.71
2018-08-04T06:25:20.523Z,26.34
2018-08-04T06:27:48.987Z,26.67
2018-08-04T06:30:17.479Z,26.88
2018-08-04T06:32:45.907Z,27.11
2018-08-04T06:35:14.267Z,27.17
2018-08-04T06:37:42.679Z,27.29
2018-08-04T06:40:11.308Z,26.92
2018-08-04T06:42:39.743Z,27.05
2018-08-04T06:45:08.267Z,26.96
2018-08-04T06:47:36.788Z,27.20
2018-08-04T06:50:05.584Z,27.26
2018-08-04T06:52:34.111Z,27.46
2018-08-04T06:55:02.685Z,27.43
2018-08-04T06:57:31.087Z,27.47
2018-08-04T06:59:59.499Z,27.52
2018-08-04T07:02:28.192Z,27.69
2018-08-04T07:04:56.691Z,28.15
2018-08-04T07:07:25.151Z,28.15
2018-08-04T07:09:53.595Z,28.47
2018-08-04T07:12:22.095Z,28.69
2018-08-04T07:14:50.560Z,28.71
2018-08-04T07:17:19.450Z,29.16
2018-08-04T07:19:47.903Z,29.43
2018-08-04T07:22:16.477Z,29.54
2018-08-04T07:24:45.335Z,29.64
2018-08-04T07:27:13.728Z,29.67
2018-08-04T07:29:42.139Z,29.97
2018-08-04T07:32:10.731Z,29.96
2018-08-04T07:34:39.137Z,29.97
2018-08-04T07:37:07.882Z,29.79
2018-08-04T07:39:36.354Z,29.94
2018-08-04T07:42:04.843Z,30.19
2018-08-04T07:44:33.301Z,30.18
2018-08-04T07:47:02.089Z,30.53
2018-08-04T07:49:30.495Z,30.88
2018-08-04T07:51:58.919Z,30.99
2018-08-04T07:54:27.406Z,30.62
2018-08-04T07:56:55.815Z,30.87
2018-08-04T07:59:24.185Z,31.04
2018-08-04T08:01:53.150Z,31.35
2018-08-04T08:04:21.588Z,31.44
2018-08-04T08:06:50.072Z,31.15
2018-08-04T08:09:18.731Z,31.48
2018-08-04T08:11:47.219Z,31.57
2018-08-04T08:14:15.776Z,31.62
2018-08-04T08:16:44.432Z,31.94
2018-08-04T08:19:13.834Z,31.62
2018-08-04T08:21:42.227Z,31.79
2018-08-04T08:24:10.951Z,32.03
2018-08-04T08:26:39.432Z,31.83
2018-08-04T08:29:07.983Z,32.15
2018-08-04T08:31:36.552Z,32.08
2018-08-04T08:34:05.039Z,31.99
2018-08-04T08:36:33.503Z,32.03
2018-08-04T08:39:01.972Z,32.87
2018-08-04T08:41:30.436Z,32.85
2018-08-04T08:43:58.920Z,32.23
2018-08-04T08:46:27.340Z,32.05
2018-08-04T08:48:55.742Z,32.40
2018-08-04T08:51:24.143Z,32.24
2018-08-04T08:53:52.634Z,32.30
2018-08-04T08:56:20.931Z,32.85
2018-08-04T08:58:49.339Z,33.19
2018-08-04T09:01:18.057Z,33.29
2018-08-04T09:03:46.455Z,33.38
2018-08-04T09:06:15.132Z,33.45
2018-08-04T09:08:44.235Z,33.45
2018-08-04T09:11:12.698Z,33.48
2018-08-04T09:13:41.163Z,33.68
2018-08-04T09:16:09.719Z,33.81
2018-08-04T09:18:38.215Z,34.15
2018-08-04T09:21:06.622Z,33.48
2018-08-04T09:23:35.064Z,33.56
2018-08-04T09:26:03.552Z,34.09
2018-08-04T09:28:32.068Z,33.36
2018-08-04T09:31:00.556Z,33.65
2018-08-04T09:33:29.035Z,34.34
2018-08-04T09:35:57.491Z,34.34
2018-08-04T09:38:25.911Z,34.34
2018-08-04T09:40:54.323Z,34.51
2018-08-04T09:43:22.708Z,33.96
2018-08-04T09:45:51.359Z,34.06
2018-08-04T09:48:19.718Z,33.88
2018-08-04T09:50:48.084Z,34.37
2018-08-04T09:53:16.596Z,33.75
2018-08-04T09:55:45.087Z,34.10
2018-08-04T09:58:13.506Z,33.89
2018-08-04T10:00:47.230Z,33.67
2018-08-04T10:03:15.595Z,33.72
2018-08-04T10:05:44.023Z,33.98
2018-08-04T10:08:12.690Z,34.01
2018-08-04T10:10:41.152Z,34.41
2018-08-04T10:13:09.619Z,34.53
2018-08-04T10:15:38.195Z,34.19
2018-08-04T10:18:06.624Z,34.14
2018-08-04T10:20:35.039Z,33.92
2018-08-04T10:23:03.612Z,33.65
2018-08-04T10:25:32.091Z,33.96
2018-08-04T10:28:00.552Z,33.86
2018-08-04T10:30:29.027Z,33.84
2018-08-04T10:32:57.484Z,33.78
2018-08-04T10:35:25.939Z,33.92
2018-08-04T10:37:54.379Z,34.31
2018-08-04T10:40:22.991Z,34.36
2018-08-04T10:42:51.443Z,34.84
2018-08-04T10:45:19.879Z,34.73
2018-08-04T10:47:48.251Z,34.41
2018-08-04T10:50:16.732Z,34.92
2018-08-04T10:52:45.223Z,35.19
2018-08-04T10:55:13.739Z,35.43
2018-08-04T10:57:42.219Z,35.16
2018-08-04T11:00:11.271Z,35.20
2018-08-04T11:02:39.688Z,35.29
2018-08-04T11:05:08.534Z,35.46
2018-08-04T11:07:37.171Z,35.69
2018-08-04T11:10:06.083Z,35.66
2018-08-04T11:12:34.717Z,35.47
2018-08-04T11:15:03.283Z,35.15
2018-08-04T11:17:31.699Z,35.16
2018-08-04T11:20:00.179Z,35.30
2018-08-04T11:22:28.597Z,35.25
2018-08-04T11:24:57.069Z,35.08
2018-08-04T11:27:25.703Z,35.30
2018-08-04T11:29:54.282Z,35.18
2018-08-04T11:32:22.899Z,35.08
2018-08-04T11:34:51.303Z,35.23
2018-08-04T11:37:19.791Z,35.52
2018-08-04T11:39:48.298Z,35.70
2018-08-04T11:42:17.034Z,35.62
2018-08-04T11:44:45.682Z,35.51
2018-08-04T11:47:14.136Z,35.21
2018-08-04T11:49:42.707Z,35.50
2018-08-04T11:52:11.262Z,35.69
2018-08-04T11:54:39.691Z,35.77
2018-08-04T11:57:08.105Z,35.61
2018-08-04T11:59:36.788Z,35.42
2018-08-04T12:02:05.347Z,34.99
2018-08-04T12:04:33.778Z,35.00
2018-08-04T12:07:02.339Z,34.84
2018-08-04T12:09:30.779Z,34.86
2018-08-04T12:11:59.183Z,34.64
2018-08-04T12:14:27.891Z,34.63
2018-08-04T12:16:56.391Z,34.77
2018-08-04T12:19:24.838Z,34.73
2018-08-04T12:21:53.527Z,35.08
2018-08-04T12:24:22.073Z,35.29
2018-08-04T12:26:50.524Z,35.50
2018-08-04T12:29:18.995Z,35.16
2018-08-04T12:31:47.387Z,34.93
2018-08-04T12:34:15.811Z,34.99
2018-08-04T12:36:44.219Z,35.11
2018-08-04T12:39:12.819Z,34.94
2018-08-04T12:41:41.325Z,35.21
2018-08-04T12:44:10.496Z,35.44
2018-08-04T12:46:39.466Z,35.55
2018-08-04T12:49:08.458Z,35.73
2018-08-04T12:51:36.956Z,36.04
2018-08-04T12:54:05.411Z,35.58
2018-08-04T12:56:33.775Z,35.90
2018-08-04T12:59:02.476Z,35.79
2018-08-04T13:01:30.892Z,35.97
2018-08-04T13:03:59.389Z,35.79
2018-08-04T13:06:27.888Z,35.84
2018-08-04T13:08:56.434Z,35.85
2018-08-04T13:11:24.871Z,36.26
2018-08-04T13:13:53.475Z,36.46
2018-08-04T13:16:22.097Z,36.56
2018-08-04T13:18:50.498Z,36.47
2018-08-04T13:21:18.987Z,36.61
2018-08-04T13:23:47.393Z,36.46
2018-08-04T13:26:15.817Z,36.74
2018-08-04T13:28:44.725Z,36.48
2018-08-04T13:31:13.155Z,36.53
2018-08-04T13:33:41.546Z,36.16
2018-08-04T13:36:10.072Z,36.33
2018-08-04T13:38:38.467Z,36.62
2018-08-04T13:41:06.884Z,36.38
2018-08-04T13:43:35.468Z,36.81
2018-08-04T13:46:03.891Z,36.56
2018-08-04T13:48:32.417Z,36.72
2018-08-04T13:51:00.892Z,36.54
2018-08-04T13:53:29.350Z,36.46
2018-08-04T13:55:57.743Z,36.70
2018-08-04T13:58:26.427Z,36.67
2018-08-04T14:00:54.859Z,36.55
2018-08-04T14:03:23.695Z,36.84
2018-08-04T14:05:52.482Z,36.63
2018-08-04T14:08:20.959Z,36.45
2018-08-04T14:10:49.431Z,36.61
2018-08-04T14:13:18.201Z,36.74
2018-08-04T14:15:46.635Z,36.62
2018-08-04T14:18:15.108Z,36.36
2018-08-04T14:20:43.571Z,36.42
2018-08-04T14:23:11.991Z,36.42
2018-08-04T14:25:40.390Z,36.42
2018-08-04T14:28:08.819Z,36.57
2018-08-04T14:30:37.275Z,36.51
2018-08-04T14:33:05.684Z,36.32
2018-08-04T14:35:34.451Z,36.46
2018-08-04T14:38:02.902Z,36.45
2018-08-04T14:40:31.459Z,36.14
2018-08-04T14:43:00.051Z,36.09
2018-08-04T14:45:28.716Z,36.22
2018-08-04T14:47:57.191Z,36.18
2018-08-04T14:50:25.687Z,36.31
2018-08-04T14:52:54.386Z,36.51
2018-08-04T14:55:23.067Z,36.77
2018-08-04T14:57:51.591Z,36.62
2018-08-04T15:00:19.960Z,36.47
2018-08-04T15:02:48.352Z,36.72
2018-08-04T15:05:16.998Z,36.56
2018-08-04T15:07:45.475Z,36.30
2018-08-04T15:10:13.993Z,36.43
2018-08-04T15:12:42.579Z,36.36
2018-08-04T15:15:11.588Z,35.83
2018-08-04T15:17:40.183Z,35.95
2018-08-04T15:20:09.061Z,35.93
2018-08-04T15:22:37.651Z,36.15
2018-08-04T15:25:06.215Z,36.03
2018-08-04T15:27:35.195Z,36.25
2018-08-04T15:30:03.662Z,35.89
2018-08-04T15:32:32.339Z,35.94
2018-08-04T15:35:01.048Z,36.16
2018-08-04T15:37:29.852Z,35.90
2018-08-04T15:39:58.305Z,35.86
2018-08-04T15:42:26.827Z,35.88
2018-08-04T15:44:55.220Z,36.02
2018-08-04T15:47:23.615Z,36.00
2018-08-04T15:49:52.447Z,36.00
2018-08-04T15:52:20.867Z,35.76
2018-08-04T15:54:49.282Z,36.04
2018-08-04T15:57:17.795Z,35.96
2018-08-04T15:59:46.215Z,35.93
2018-08-04T16:02:14.611Z,35.92
2018-08-04T16:04:43.220Z,35.88
2018-08-04T16:07:11.624Z,35.88
2018-08-04T16:09:40.023Z,36.01
2018-08-04T16:12:08.559Z,35.85
2018-08-04T16:14:37.355Z,35.93
2018-08-04T16:17:05.811Z,35.81
2018-08-04T16:19:34.678Z,35.83
2018-08-04T16:22:03.107Z,35.62
2018-08-04T16:24:31.671Z,35.39
2018-08-04T16:27:00.243Z,35.53
2018-08-04T16:29:28.648Z,35.37
2018-08-04T16:31:57.074Z,35.38
2018-08-04T16:34:25.738Z,35.45
2018-08-04T16:36:54.148Z,35.36
2018-08-04T16:39:22.587Z,35.25
2018-08-04T16:41:51.139Z,35.10
2018-08-04T16:44:19.530Z,35.00
2018-08-04T16:46:47.953Z,35.01
2018-08-04T16:49:16.469Z,34.87
2018-08-04T16:51:44.892Z,34.73
2018-08-04T16:54:13.339Z,34.69
2018-08-04T16:56:41.887Z,34.76
2018-08-04T16:59:10.353Z,34.68
2018-08-04T17:01:39.047Z,34.62
2018-08-04T17:04:07.475Z,34.55
2018-08-04T17:06:36.000Z,34.41
2018-08-04T17:09:06.799Z,34.33
2018-08-04T17:11:35.246Z,34.40
2018-08-04T17:14:03.653Z,34.38
2018-08-04T17:16:32.113Z,34.29
2018-08-04T17:19:00.544Z,34.26
2018-08-04T17:21:29.243Z,34.27
2018-08-04T17:23:57.679Z,34.13
2018-08-04T17:26:26.112Z,34.10
2018-08-04T17:28:54.583Z,33.81
2018-08-04T17:31:23.071Z,33.91
2018-08-04T17:33:51.595Z,33.85
2018-08-04T17:36:19.998Z,33.91
2018-08-04T17:38:48.668Z,33.61
2018-08-04T17:41:17.077Z,33.69
2018-08-04T17:43:45.466Z,33.43
2018-08-04T17:46:13.939Z,33.57
2018-08-04T17:48:42.346Z,33.66
2018-08-04T17:51:10.735Z,33.47
2018-08-04T17:53:39.300Z,33.50
2018-08-04T17:56:07.719Z,33.38
2018-08-04T17:58:36.207Z,33.41
2018-08-04T18:01:04.663Z,33.34
2018-08-04T18:03:33.095Z,33.22
2018-08-04T18:06:01.496Z,33.22
2018-08-04T18:08:30.142Z,33.19
2018-08-04T18:10:58.515Z,33.27
2018-08-04T18:13:26.982Z,33.14
2018-08-04T18:15:55.639Z,33.06
2018-08-04T18:18:24.191Z,32.98
2018-08-04T18:20:52.758Z,33.02
2018-08-04T18:23:21.384Z,32.84
2018-08-04T18:25:49.834Z,32.78
2018-08-04T18:28:18.228Z,32.67
2018-08-04T18:30:46.814Z,32.38
2018-08-04T18:33:15.219Z,32.39
2018-08-04T18:35:43.710Z,32.36
2018-08-04T18:38:12.268Z,32.13
2018-08-04T18:40:40.739Z,32.01
2018-08-04T18:43:09.150Z,31.87
2018-08-04T18:45:37.980Z,32.10
2018-08-04T18:48:06.429Z,31.82
2018-08-04T18:50:34.835Z,31.82
2018-08-04T18:53:03.366Z,31.67
2018-08-04T18:55:31.708Z,31.44
2018-08-04T18:58:00.201Z,31.56
2018-08-04T19:00:28.680Z,31.22
2018-08-04T19:02:57.162Z,31.08
2018-08-04T19:05:25.527Z,31.28
2018-08-04T19:07:54.194Z,31.17
2018-08-04T19:10:22.687Z,31.04
2018-08-04T19:12:51.139Z,31.04
2018-08-04T19:15:19.815Z,31.02
2018-08-04T19:17:48.194Z,30.94
2018-08-04T19:20:16.659Z,30.93
2018-08-04T19:22:45.283Z,31.22
2018-08-04T19:25:13.638Z,30.83
2018-08-04T19:27:42.043Z,30.94
2018-08-04T19:30:10.523Z,30.86
2018-08-04T19:32:38.990Z,30.73
2018-08-04T19:35:07.436Z,30.79
2018-08-04T19:37:36.043Z,30.69
2018-08-04T19:40:04.884Z,30.75
2018-08-04T19:42:33.387Z,30.55
2018-08-04T19:45:01.780Z,30.70
2018-08-04T19:47:30.181Z,30.68
2018-08-04T19:49:58.683Z,30.55
2018-08-04T19:52:27.159Z,30.51
2018-08-04T19:54:55.610Z,30.29
2018-08-04T19:57:24.003Z,30.04
2018-08-04T19:59:52.598Z,30.31
2018-08-04T20:02:21.047Z,30.11
2018-08-04T20:04:49.458Z,30.26
2018-08-04T20:07:18.094Z,30.20
2018-08-04T20:09:46.539Z,30.03
2018-08-04T20:12:15.023Z,30.05
2018-08-04T20:14:43.734Z,29.86
2018-08-04T20:17:12.207Z,29.89
2018-08-04T20:19:40.691Z,29.81
2018-08-04T20:22:14.089Z,29.91
2018-08-04T20:24:42.638Z,29.97
2018-08-04T20:27:11.087Z,29.92
2018-08-04T20:29:39.866Z,29.72
2018-08-04T20:32:08.687Z,29.92
2018-08-04T20:34:37.055Z,29.81
2018-08-04T20:37:05.527Z,29.77
2018-08-04T20:39:34.060Z,29.69
2018-08-04T20:42:02.595Z,29.62
2018-08-04T20:44:31.343Z,29.74
2018-08-04T20:46:59.826Z,29.68
2018-08-04T20:49:28.335Z,29.65
2018-08-04T20:51:56.874Z,29.50
2018-08-04T20:54:25.244Z,29.53
2018-08-04T20:56:53.767Z,29.59
2018-08-04T20:59:22.363Z,29.52
2018-08-04T21:02:00.231Z,29.51
2018-08-04T21:04:29.923Z,29.35
2018-08-04T21:06:58.524Z,29.42
2018-08-04T21:09:26.981Z,29.32
2018-08-04T21:11:56.543Z,28.99
2018-08-04T21:14:26.152Z,29.00
2018-08-04T21:16:55.403Z,29.01
2018-08-04T21:19:24.635Z,29.03
2018-08-04T21:21:53.207Z,29.28
2018-08-04T21:24:22.867Z,29.34
2018-08-04T21:26:52.692Z,29.32
2018-08-04T21:29:21.698Z,29.20
2018-08-04T21:31:50.160Z,29.14
2018-08-04T21:34:18.822Z,29.18
2018-08-04T21:36:47.383Z,29.20
2018-08-04T21:39:17.219Z,29.36
2018-08-04T21:41:46.714Z,29.40
2018-08-04T21:44:15.688Z,29.14
2018-08-04T21:46:50.156Z,28.93
2018-08-04T21:49:19.041Z,29.13
2018-08-04T21:51:48.597Z,29.03
2018-08-04T21:54:19.921Z,28.73
2018-08-04T21:56:46.779Z,28.62
2018-08-04T21:59:15.282Z,28.47
2018-08-04T22:01:49.221Z,28.70
2018-08-04T22:04:17.651Z,28.51
2018-08-04T22:07:59.127Z,28.67
2018-08-04T22:10:27.640Z,28.52
2018-08-04T22:12:56.305Z,28.47
2018-08-04T22:15:24.797Z,28.77
2018-08-04T22:17:53.267Z,28.67
2018-08-04T22:20:22.511Z,28.58
2018-08-04T22:22:51.111Z,28.44
2018-08-04T22:25:20.931Z,28.22
2018-08-04T22:27:49.400Z,28.35
2018-08-04T22:30:19.153Z,28.10
2018-08-04T22:32:48.163Z,28.25
2018-08-04T22:35:16.634Z,28.09
2018-08-04T22:37:45.187Z,28.01
2018-08-04T22:40:14.867Z,27.89
2018-08-04T22:42:43.667Z,27.93
2018-08-04T22:46:22.021Z,27.91
2018-08-04T22:48:51.842Z,27.79
2018-08-04T22:51:23.346Z,27.71
2018-08-04T22:53:51.832Z,27.68
2018-08-04T22:56:20.246Z,27.67
2018-08-04T22:58:48.763Z,27.69
2018-08-04T23:01:17.276Z,27.62
2018-08-04T23:06:14.451Z,27.66
2018-08-04T23:08:42.928Z,27.42
2018-08-04T23:11:11.414Z,27.59
2018-08-04T23:13:39.825Z,27.67
2018-08-04T23:16:08.366Z,27.43
2018-08-04T23:18:36.822Z,27.37
2018-08-04T23:21:05.475Z,27.65
2018-08-04T23:23:33.995Z,27.67
2018-08-04T23:26:02.463Z,27.61
2018-08-04T23:28:30.892Z,27.50
2018-08-04T23:30:59.286Z,27.42
2018-08-04T23:33:27.734Z,27.27
2018-08-04T23:35:56.274Z,27.11
2018-08-04T23:38:24.769Z,27.01
2018-08-04T23:40:53.220Z,26.87
2018-08-04T23:43:21.661Z,26.83
2018-08-04T23:45:50.179Z,26.78
2018-08-04T23:48:18.615Z,27.14
2018-08-04T23:50:47.286Z,27.34
2018-08-04T23:53:16.822Z,27.26
2018-08-04T23:55:45.211Z,26.98
2018-08-04T23:58:13.692Z,26.77
